sensor_id;sensor_type;location;lat;lon;timestamp;P1;durP1;ratioP1;P2;durP2;ratioP2
34988;SDS011;21192;40.182;44.516;2023-07-09T00:01:59;24.45;;;11.45;;
34988;SDS011;21192;40.182;44.516;2023-07-09T00:04:25;38.45;;;18.55;;
34988;SDS011;21192;40.182;44.516;2023-07-09T00:06:51;36.22;;;19.13;;
34988;SDS011;21192;40.182;44.516;2023-07-09T00:09:18;47.92;;;21.75;;
34988;SDS011;21192;40.182;44.516;2023-07-09T00:11:45;31.67;;;14.52;;
34988;SDS011;21192;40.182;44.516;2023-07-09T00:14:12;31.92;;;14.43;;
34988;SDS011;21192;40.182;44.516;2023-07-09T00:16:40;27.50;;;12.52;;
34988;SDS011;21192;40.182;44.516;2023-07-09T00:19:14;32.80;;;13.73;;
34988;SDS011;21192;40.182;44.516;2023-07-09T00:21:42;22.27;;;10.07;;
34988;SDS011;21192;40.182;44.516;2023-07-09T00:24:10;28.85;;;15.25;;
34988;SDS011;21192;40.182;44.516;2023-07-09T00:26:37;28.15;;;13.30;;
34988;SDS011;21192;40.182;44.516;2023-07-09T00:29:09;29.38;;;13.70;;
34988;SDS011;21192;40.182;44.516;2023-07-09T00:31:36;22.55;;;8.80;;
34988;SDS011;21192;40.182;44.516;2023-07-09T00:34:14;17.20;;;7.18;;
34988;SDS011;21192;40.182;44.516;2023-07-09T00:36:46;20.08;;;8.23;;
34988;SDS011;21192;40.182;44.516;2023-07-09T00:39:16;26.20;;;11.50;;
34988;SDS011;21192;40.182;44.516;2023-07-09T00:41:43;29.23;;;11.55;;
34988;SDS011;21192;40.182;44.516;2023-07-09T00:44:26;19.23;;;8.32;;
34988;SDS011;21192;40.182;44.516;2023-07-09T00:49:35;21.80;;;10.45;;
34988;SDS011;21192;40.182;44.516;2023-07-09T00:52:17;19.80;;;8.18;;
34988;SDS011;21192;40.182;44.516;2023-07-09T00:54:57;14.30;;;6.28;;
34988;SDS011;21192;40.182;44.516;2023-07-09T00:57:25;18.23;;;6.25;;
34988;SDS011;21192;40.182;44.516;2023-07-09T01:00:04;25.33;;;8.07;;
34988;SDS011;21192;40.182;44.516;2023-07-09T01:02:35;19.42;;;6.28;;
34988;SDS011;21192;40.182;44.516;2023-07-09T01:05:02;17.80;;;5.88;;
34988;SDS011;21192;40.182;44.516;2023-07-09T01:07:31;19.25;;;5.30;;
34988;SDS011;21192;40.182;44.516;2023-07-09T01:09:57;15.68;;;4.85;;
34988;SDS011;21192;40.182;44.516;2023-07-09T01:12:23;14.68;;;5.03;;
34988;SDS011;21192;40.182;44.516;2023-07-09T01:14:51;19.50;;;5.55;;
34988;SDS011;21192;40.182;44.516;2023-07-09T01:17:19;17.17;;;5.13;;
34988;SDS011;21192;40.182;44.516;2023-07-09T01:19:48;15.93;;;5.55;;
34988;SDS011;21192;40.182;44.516;2023-07-09T01:22:16;14.18;;;5.75;;
34988;SDS011;21192;40.182;44.516;2023-07-09T01:24:54;20.60;;;5.90;;
34988;SDS011;21192;40.182;44.516;2023-07-09T01:30:06;16.45;;;6.15;;
34988;SDS011;21192;40.182;44.516;2023-07-09T01:32:56;15.85;;;6.00;;
34988;SDS011;21192;40.182;44.516;2023-07-09T01:35:23;13.32;;;5.53;;
34988;SDS011;21192;40.182;44.516;2023-07-09T01:37:51;21.05;;;5.70;;
34988;SDS011;21192;40.182;44.516;2023-07-09T01:40:18;15.23;;;5.68;;
34988;SDS011;21192;40.182;44.516;2023-07-09T01:42:45;15.23;;;5.40;;
34988;SDS011;21192;40.182;44.516;2023-07-09T01:45:11;18.75;;;6.22;;
34988;SDS011;21192;40.182;44.516;2023-07-09T01:47:38;15.05;;;5.65;;
34988;SDS011;21192;40.182;44.516;2023-07-09T01:50:07;18.70;;;6.40;;
34988;SDS011;21192;40.182;44.516;2023-07-09T01:52:34;16.80;;;6.90;;
34988;SDS011;21192;40.182;44.516;2023-07-09T01:55:03;16.27;;;7.63;;
34988;SDS011;21192;40.182;44.516;2023-07-09T01:57:30;21.55;;;8.75;;
34988;SDS011;21192;40.182;44.516;2023-07-09T02:00:09;20.75;;;8.70;;
34988;SDS011;21192;40.182;44.516;2023-07-09T02:02:39;23.05;;;8.80;;
34988;SDS011;21192;40.182;44.516;2023-07-09T02:05:09;18.83;;;8.77;;
34988;SDS011;21192;40.182;44.516;2023-07-09T02:07:36;32.10;;;9.85;;
34988;SDS011;21192;40.182;44.516;2023-07-09T02:10:02;23.95;;;10.45;;
34988;SDS011;21192;40.182;44.516;2023-07-09T02:12:28;25.35;;;10.98;;
34988;SDS011;21192;40.182;44.516;2023-07-09T02:14:54;23.90;;;10.77;;
34988;SDS011;21192;40.182;44.516;2023-07-09T02:17:20;25.45;;;10.77;;
34988;SDS011;21192;40.182;44.516;2023-07-09T02:19:45;40.58;;;11.95;;
34988;SDS011;21192;40.182;44.516;2023-07-09T02:22:11;25.15;;;11.43;;
34988;SDS011;21192;40.182;44.516;2023-07-09T02:24:37;33.88;;;12.60;;
34988;SDS011;21192;40.182;44.516;2023-07-09T02:27:05;30.38;;;12.10;;
34988;SDS011;21192;40.182;44.516;2023-07-09T02:29:32;33.58;;;13.27;;
34988;SDS011;21192;40.182;44.516;2023-07-09T02:31:59;32.00;;;13.60;;
34988;SDS011;21192;40.182;44.516;2023-07-09T02:34:26;33.53;;;12.85;;
34988;SDS011;21192;40.182;44.516;2023-07-09T02:36:53;23.75;;;12.50;;
34988;SDS011;21192;40.182;44.516;2023-07-09T02:39:20;27.67;;;11.88;;
34988;SDS011;21192;40.182;44.516;2023-07-09T02:41:47;28.77;;;12.13;;
34988;SDS011;21192;40.182;44.516;2023-07-09T02:44:13;25.80;;;10.95;;
34988;SDS011;21192;40.182;44.516;2023-07-09T02:46:39;23.08;;;9.95;;
34988;SDS011;21192;40.182;44.516;2023-07-09T02:49:05;22.90;;;10.68;;
34988;SDS011;21192;40.182;44.516;2023-07-09T02:51:32;23.33;;;12.13;;
34988;SDS011;21192;40.182;44.516;2023-07-09T02:53:59;29.35;;;14.55;;
34988;SDS011;21192;40.182;44.516;2023-07-09T02:56:27;27.15;;;12.60;;
34988;SDS011;21192;40.182;44.516;2023-07-09T02:58:53;28.50;;;13.07;;
34988;SDS011;21192;40.182;44.516;2023-07-09T03:01:19;28.73;;;13.60;;
34988;SDS011;21192;40.182;44.516;2023-07-09T03:03:55;27.90;;;16.15;;
34988;SDS011;21192;40.182;44.516;2023-07-09T03:06:24;32.40;;;15.65;;
34988;SDS011;21192;40.182;44.516;2023-07-09T03:08:52;31.88;;;18.45;;
34988;SDS011;21192;40.182;44.516;2023-07-09T03:11:18;34.78;;;18.90;;
34988;SDS011;21192;40.182;44.516;2023-07-09T03:13:45;31.38;;;17.75;;
34988;SDS011;21192;40.182;44.516;2023-07-09T03:16:12;29.88;;;18.15;;
34988;SDS011;21192;40.182;44.516;2023-07-09T03:18:39;30.60;;;17.33;;
34988;SDS011;21192;40.182;44.516;2023-07-09T03:21:05;33.80;;;17.88;;
34988;SDS011;21192;40.182;44.516;2023-07-09T03:23:31;31.88;;;16.52;;
34988;SDS011;21192;40.182;44.516;2023-07-09T03:25:57;27.25;;;14.75;;
34988;SDS011;21192;40.182;44.516;2023-07-09T03:28:24;29.35;;;16.05;;
34988;SDS011;21192;40.182;44.516;2023-07-09T03:30:52;30.70;;;15.52;;
34988;SDS011;21192;40.182;44.516;2023-07-09T03:33:19;30.45;;;16.38;;
34988;SDS011;21192;40.182;44.516;2023-07-09T03:35:46;31.73;;;15.30;;
34988;SDS011;21192;40.182;44.516;2023-07-09T03:38:12;33.83;;;15.20;;
34988;SDS011;21192;40.182;44.516;2023-07-09T03:40:38;30.05;;;14.32;;
34988;SDS011;21192;40.182;44.516;2023-07-09T03:43:04;26.80;;;14.50;;
34988;SDS011;21192;40.182;44.516;2023-07-09T03:45:31;29.50;;;14.73;;
34988;SDS011;21192;40.182;44.516;2023-07-09T03:47:58;30.05;;;15.35;;
34988;SDS011;21192;40.182;44.516;2023-07-09T03:50:24;26.88;;;13.73;;
34988;SDS011;21192;40.182;44.516;2023-07-09T03:52:49;29.73;;;13.95;;
34988;SDS011;21192;40.182;44.516;2023-07-09T03:55:15;29.15;;;14.52;;
34988;SDS011;21192;40.182;44.516;2023-07-09T03:57:41;26.13;;;12.88;;
34988;SDS011;21192;40.182;44.516;2023-07-09T04:00:07;25.38;;;12.85;;
34988;SDS011;21192;40.182;44.516;2023-07-09T04:02:40;23.92;;;11.52;;
34988;SDS011;21192;40.182;44.516;2023-07-09T04:05:08;17.98;;;9.63;;
34988;SDS011;21192;40.182;44.516;2023-07-09T04:07:35;24.63;;;10.02;;
34988;SDS011;21192;40.182;44.516;2023-07-09T04:10:02;21.67;;;10.93;;
34988;SDS011;21192;40.182;44.516;2023-07-09T04:12:29;22.63;;;9.93;;
34988;SDS011;21192;40.182;44.516;2023-07-09T04:14:55;23.60;;;11.05;;
34988;SDS011;21192;40.182;44.516;2023-07-09T04:17:20;21.92;;;10.38;;
34988;SDS011;21192;40.182;44.516;2023-07-09T04:19:48;26.38;;;9.95;;
34988;SDS011;21192;40.182;44.516;2023-07-09T04:22:17;26.33;;;12.25;;
34988;SDS011;21192;40.182;44.516;2023-07-09T04:24:43;31.02;;;14.65;;
34988;SDS011;21192;40.182;44.516;2023-07-09T04:27:10;33.13;;;16.13;;
34988;SDS011;21192;40.182;44.516;2023-07-09T04:29:38;37.40;;;15.50;;
34988;SDS011;21192;40.182;44.516;2023-07-09T04:32:12;31.60;;;14.95;;
34988;SDS011;21192;40.182;44.516;2023-07-09T04:34:39;34.33;;;15.80;;
34988;SDS011;21192;40.182;44.516;2023-07-09T04:37:06;35.53;;;16.00;;
34988;SDS011;21192;40.182;44.516;2023-07-09T04:39:33;32.80;;;16.05;;
34988;SDS011;21192;40.182;44.516;2023-07-09T04:41:59;37.65;;;14.80;;
34988;SDS011;21192;40.182;44.516;2023-07-09T04:44:25;33.92;;;15.25;;
34988;SDS011;21192;40.182;44.516;2023-07-09T04:46:50;30.35;;;14.98;;
34988;SDS011;21192;40.182;44.516;2023-07-09T04:49:16;27.30;;;13.77;;
34988;SDS011;21192;40.182;44.516;2023-07-09T04:51:42;26.98;;;13.77;;
34988;SDS011;21192;40.182;44.516;2023-07-09T04:54:08;23.60;;;12.27;;
34988;SDS011;21192;40.182;44.516;2023-07-09T04:56:34;25.35;;;12.65;;
34988;SDS011;21192;40.182;44.516;2023-07-09T04:59:01;28.17;;;13.35;;
34988;SDS011;21192;40.182;44.516;2023-07-09T05:01:27;25.83;;;12.57;;
34988;SDS011;21192;40.182;44.516;2023-07-09T05:03:54;20.63;;;12.55;;
34988;SDS011;21192;40.182;44.516;2023-07-09T05:06:19;27.83;;;12.52;;
34988;SDS011;21192;40.182;44.516;2023-07-09T05:08:46;24.10;;;12.30;;
34988;SDS011;21192;40.182;44.516;2023-07-09T05:11:13;22.48;;;12.00;;
34988;SDS011;21192;40.182;44.516;2023-07-09T05:13:39;35.17;;;12.23;;
34988;SDS011;21192;40.182;44.516;2023-07-09T05:16:05;28.50;;;11.52;;
34988;SDS011;21192;40.182;44.516;2023-07-09T05:18:31;20.92;;;10.85;;
34988;SDS011;21192;40.182;44.516;2023-07-09T05:20:57;27.13;;;11.00;;
34988;SDS011;21192;40.182;44.516;2023-07-09T05:23:26;26.50;;;10.10;;
34988;SDS011;21192;40.182;44.516;2023-07-09T05:25:58;21.42;;;10.52;;
34988;SDS011;21192;40.182;44.516;2023-07-09T05:28:27;25.58;;;11.27;;
34988;SDS011;21192;40.182;44.516;2023-07-09T05:30:53;20.75;;;9.73;;
34988;SDS011;21192;40.182;44.516;2023-07-09T05:33:19;26.58;;;10.15;;
34988;SDS011;21192;40.182;44.516;2023-07-09T05:35:45;28.58;;;11.27;;
34988;SDS011;21192;40.182;44.516;2023-07-09T05:38:12;25.95;;;9.73;;
34988;SDS011;21192;40.182;44.516;2023-07-09T05:40:39;24.95;;;9.43;;
34988;SDS011;21192;40.182;44.516;2023-07-09T05:43:05;24.23;;;8.75;;
34988;SDS011;21192;40.182;44.516;2023-07-09T05:45:31;22.63;;;8.43;;
34988;SDS011;21192;40.182;44.516;2023-07-09T05:47:57;19.67;;;7.90;;
34988;SDS011;21192;40.182;44.516;2023-07-09T05:50:24;24.92;;;7.32;;
34988;SDS011;21192;40.182;44.516;2023-07-09T05:52:50;24.40;;;8.10;;
34988;SDS011;21192;40.182;44.516;2023-07-09T05:55:16;20.95;;;7.90;;
34988;SDS011;21192;40.182;44.516;2023-07-09T05:57:42;25.02;;;7.70;;
34988;SDS011;21192;40.182;44.516;2023-07-09T06:00:08;22.63;;;7.05;;
34988;SDS011;21192;40.182;44.516;2023-07-09T06:02:34;21.95;;;7.32;;
34988;SDS011;21192;40.182;44.516;2023-07-09T06:05:00;27.52;;;7.20;;
34988;SDS011;21192;40.182;44.516;2023-07-09T06:07:27;26.52;;;7.15;;
34988;SDS011;21192;40.182;44.516;2023-07-09T06:09:53;15.82;;;6.20;;
34988;SDS011;21192;40.182;44.516;2023-07-09T06:12:18;20.08;;;7.32;;
34988;SDS011;21192;40.182;44.516;2023-07-09T06:14:45;22.40;;;8.10;;
34988;SDS011;21192;40.182;44.516;2023-07-09T06:17:11;17.45;;;7.30;;
34988;SDS011;21192;40.182;44.516;2023-07-09T06:19:38;19.25;;;7.15;;
34988;SDS011;21192;40.182;44.516;2023-07-09T06:22:04;21.90;;;6.90;;
34988;SDS011;21192;40.182;44.516;2023-07-09T06:24:30;21.88;;;7.53;;
34988;SDS011;21192;40.182;44.516;2023-07-09T06:26:56;20.67;;;6.93;;
34988;SDS011;21192;40.182;44.516;2023-07-09T06:29:22;17.08;;;6.65;;
34988;SDS011;21192;40.182;44.516;2023-07-09T06:31:48;16.40;;;6.35;;
34988;SDS011;21192;40.182;44.516;2023-07-09T06:34:14;20.95;;;7.07;;
34988;SDS011;21192;40.182;44.516;2023-07-09T06:36:40;26.70;;;7.60;;
34988;SDS011;21192;40.182;44.516;2023-07-09T06:39:06;29.35;;;8.48;;
34988;SDS011;21192;40.182;44.516;2023-07-09T06:41:31;26.33;;;8.70;;
34988;SDS011;21192;40.182;44.516;2023-07-09T06:44:04;32.42;;;9.07;;
34988;SDS011;21192;40.182;44.516;2023-07-09T06:46:31;26.33;;;7.43;;
34988;SDS011;21192;40.182;44.516;2023-07-09T06:48:56;22.25;;;8.35;;
34988;SDS011;21192;40.182;44.516;2023-07-09T06:51:22;15.82;;;6.57;;
34988;SDS011;21192;40.182;44.516;2023-07-09T06:53:48;24.45;;;7.88;;
34988;SDS011;21192;40.182;44.516;2023-07-09T06:56:16;22.05;;;7.07;;
34988;SDS011;21192;40.182;44.516;2023-07-09T06:58:42;20.35;;;7.50;;
34988;SDS011;21192;40.182;44.516;2023-07-09T07:01:11;28.13;;;7.32;;
34988;SDS011;21192;40.182;44.516;2023-07-09T07:03:38;20.92;;;7.53;;
34988;SDS011;21192;40.182;44.516;2023-07-09T07:06:04;25.10;;;8.68;;
34988;SDS011;21192;40.182;44.516;2023-07-09T07:08:32;17.65;;;7.25;;
34988;SDS011;21192;40.182;44.516;2023-07-09T07:10:59;17.42;;;7.00;;
34988;SDS011;21192;40.182;44.516;2023-07-09T07:13:32;18.00;;;6.80;;
34988;SDS011;21192;40.182;44.516;2023-07-09T07:16:00;21.27;;;7.00;;
34988;SDS011;21192;40.182;44.516;2023-07-09T07:18:27;20.73;;;7.35;;
34988;SDS011;21192;40.182;44.516;2023-07-09T07:20:53;18.33;;;6.78;;
34988;SDS011;21192;40.182;44.516;2023-07-09T07:23:19;20.45;;;8.13;;
34988;SDS011;21192;40.182;44.516;2023-07-09T07:25:46;20.00;;;7.10;;
34988;SDS011;21192;40.182;44.516;2023-07-09T07:28:12;19.98;;;6.85;;
34988;SDS011;21192;40.182;44.516;2023-07-09T07:30:38;15.30;;;6.85;;
34988;SDS011;21192;40.182;44.516;2023-07-09T07:33:04;23.38;;;8.05;;
34988;SDS011;21192;40.182;44.516;2023-07-09T07:35:30;29.10;;;8.27;;
34988;SDS011;21192;40.182;44.516;2023-07-09T07:37:56;21.67;;;7.88;;
34988;SDS011;21192;40.182;44.516;2023-07-09T07:40:22;18.38;;;6.57;;
34988;SDS011;21192;40.182;44.516;2023-07-09T07:42:48;18.38;;;7.18;;
34988;SDS011;21192;40.182;44.516;2023-07-09T07:45:14;20.55;;;7.18;;
34988;SDS011;21192;40.182;44.516;2023-07-09T07:47:40;22.42;;;7.13;;
34988;SDS011;21192;40.182;44.516;2023-07-09T07:50:06;18.05;;;8.48;;
34988;SDS011;21192;40.182;44.516;2023-07-09T07:52:33;18.05;;;7.07;;
34988;SDS011;21192;40.182;44.516;2023-07-09T07:55:02;19.75;;;7.45;;
34988;SDS011;21192;40.182;44.516;2023-07-09T07:57:32;18.95;;;6.90;;
34988;SDS011;21192;40.182;44.516;2023-07-09T07:59:58;25.42;;;7.88;;
34988;SDS011;21192;40.182;44.516;2023-07-09T08:02:24;21.05;;;6.90;;
34988;SDS011;21192;40.182;44.516;2023-07-09T08:04:50;23.20;;;6.63;;
34988;SDS011;21192;40.182;44.516;2023-07-09T08:07:16;22.70;;;7.13;;
34988;SDS011;21192;40.182;44.516;2023-07-09T08:09:44;18.38;;;7.20;;
34988;SDS011;21192;40.182;44.516;2023-07-09T08:12:11;14.15;;;6.15;;
34988;SDS011;21192;40.182;44.516;2023-07-09T08:14:38;17.13;;;7.22;;
34988;SDS011;21192;40.182;44.516;2023-07-09T08:17:05;17.15;;;7.18;;
34988;SDS011;21192;40.182;44.516;2023-07-09T08:19:32;21.48;;;7.43;;
34988;SDS011;21192;40.182;44.516;2023-07-09T08:22:08;18.65;;;6.50;;
34988;SDS011;21192;40.182;44.516;2023-07-09T08:24:34;15.63;;;6.47;;
34988;SDS011;21192;40.182;44.516;2023-07-09T08:27:00;16.45;;;6.75;;
34988;SDS011;21192;40.182;44.516;2023-07-09T08:29:26;18.88;;;6.32;;
34988;SDS011;21192;40.182;44.516;2023-07-09T08:31:52;15.27;;;6.28;;
34988;SDS011;21192;40.182;44.516;2023-07-09T08:34:18;17.13;;;6.68;;
34988;SDS011;21192;40.182;44.516;2023-07-09T08:36:43;25.75;;;6.30;;
34988;SDS011;21192;40.182;44.516;2023-07-09T08:39:09;21.15;;;6.63;;
34988;SDS011;21192;40.182;44.516;2023-07-09T08:41:54;19.63;;;6.63;;
34988;SDS011;21192;40.182;44.516;2023-07-09T08:44:38;27.92;;;7.60;;
34988;SDS011;21192;40.182;44.516;2023-07-09T08:49:49;23.75;;;8.30;;
34988;SDS011;21192;40.182;44.516;2023-07-09T08:52:24;18.55;;;6.97;;
34988;SDS011;21192;40.182;44.516;2023-07-09T08:54:51;31.98;;;9.02;;
34988;SDS011;21192;40.182;44.516;2023-07-09T08:59:51;17.80;;;6.85;;
34988;SDS011;21192;40.182;44.516;2023-07-09T09:02:31;27.35;;;10.15;;
34988;SDS011;21192;40.182;44.516;2023-07-09T09:05:04;18.85;;;7.38;;
34988;SDS011;21192;40.182;44.516;2023-07-09T09:07:33;17.67;;;6.82;;
34988;SDS011;21192;40.182;44.516;2023-07-09T09:10:10;21.67;;;7.65;;
34988;SDS011;21192;40.182;44.516;2023-07-09T09:12:43;23.55;;;7.20;;
34988;SDS011;21192;40.182;44.516;2023-07-09T09:15:32;20.13;;;6.50;;
34988;SDS011;21192;40.182;44.516;2023-07-09T09:18:01;17.05;;;6.18;;
34988;SDS011;21192;40.182;44.516;2023-07-09T09:20:58;16.67;;;5.53;;
34988;SDS011;21192;40.182;44.516;2023-07-09T09:23:41;18.40;;;5.45;;
34988;SDS011;21192;40.182;44.516;2023-07-09T09:26:21;24.55;;;6.05;;
34988;SDS011;21192;40.182;44.516;2023-07-09T09:28:55;29.25;;;8.15;;
34988;SDS011;21192;40.182;44.516;2023-07-09T09:31:23;28.02;;;8.40;;
34988;SDS011;21192;40.182;44.516;2023-07-09T09:33:53;21.60;;;7.43;;
34988;SDS011;21192;40.182;44.516;2023-07-09T09:36:20;21.05;;;6.28;;
34988;SDS011;21192;40.182;44.516;2023-07-09T09:38:51;29.23;;;8.20;;
34988;SDS011;21192;40.182;44.516;2023-07-09T09:41:19;27.25;;;7.43;;
34988;SDS011;21192;40.182;44.516;2023-07-09T09:43:46;22.30;;;7.22;;
34988;SDS011;21192;40.182;44.516;2023-07-09T09:46:17;20.58;;;8.70;;
34988;SDS011;21192;40.182;44.516;2023-07-09T09:48:46;22.42;;;6.95;;
34988;SDS011;21192;40.182;44.516;2023-07-09T09:51:13;20.30;;;6.47;;
34988;SDS011;21192;40.182;44.516;2023-07-09T09:53:41;27.77;;;8.32;;
34988;SDS011;21192;40.182;44.516;2023-07-09T09:56:27;26.58;;;7.60;;
34988;SDS011;21192;40.182;44.516;2023-07-09T09:58:55;23.45;;;7.00;;
34988;SDS011;21192;40.182;44.516;2023-07-09T10:01:27;24.92;;;7.25;;
34988;SDS011;21192;40.182;44.516;2023-07-09T10:03:56;24.40;;;7.10;;
34988;SDS011;21192;40.182;44.516;2023-07-09T10:09:13;26.95;;;6.78;;
34988;SDS011;21192;40.182;44.516;2023-07-09T10:12:26;19.33;;;6.10;;
34988;SDS011;21192;40.182;44.516;2023-07-09T10:17:37;19.05;;;5.25;;
34988;SDS011;21192;40.182;44.516;2023-07-09T10:22:57;29.13;;;8.95;;
34988;SDS011;21192;40.182;44.516;2023-07-09T10:34:28;35.38;;;9.38;;
34988;SDS011;21192;40.182;44.516;2023-07-09T10:39:46;28.23;;;6.78;;
34988;SDS011;21192;40.182;44.516;2023-07-09T10:42:17;24.15;;;7.50;;
34988;SDS011;21192;40.182;44.516;2023-07-09T10:44:51;21.40;;;6.40;;
34988;SDS011;21192;40.182;44.516;2023-07-09T10:47:27;24.73;;;7.68;;
34988;SDS011;21192;40.182;44.516;2023-07-09T10:49:59;22.27;;;7.18;;
34988;SDS011;21192;40.182;44.516;2023-07-09T10:52:29;21.40;;;6.10;;
34988;SDS011;21192;40.182;44.516;2023-07-09T10:55:02;17.50;;;6.28;;
34988;SDS011;21192;40.182;44.516;2023-07-09T10:57:54;25.33;;;8.43;;
34988;SDS011;21192;40.182;44.516;2023-07-09T11:00:23;23.20;;;8.23;;
34988;SDS011;21192;40.182;44.516;2023-07-09T11:02:59;26.48;;;8.18;;
34988;SDS011;21192;40.182;44.516;2023-07-09T11:05:35;30.70;;;8.32;;
34988;SDS011;21192;40.182;44.516;2023-07-09T11:08:25;28.58;;;8.65;;
34988;SDS011;21192;40.182;44.516;2023-07-09T11:11:04;21.50;;;7.97;;
34988;SDS011;21192;40.182;44.516;2023-07-09T11:13:45;32.05;;;8.90;;
34988;SDS011;21192;40.182;44.516;2023-07-09T11:16:16;22.60;;;6.88;;
34988;SDS011;21192;40.182;44.516;2023-07-09T11:18:54;22.67;;;6.93;;
34988;SDS011;21192;40.182;44.516;2023-07-09T11:21:25;23.48;;;7.18;;
34988;SDS011;21192;40.182;44.516;2023-07-09T11:23:55;25.52;;;7.65;;
34988;SDS011;21192;40.182;44.516;2023-07-09T11:26:31;23.33;;;7.72;;
34988;SDS011;21192;40.182;44.516;2023-07-09T11:31:37;16.35;;;5.57;;
34988;SDS011;21192;40.182;44.516;2023-07-09T11:34:09;25.92;;;7.70;;
34988;SDS011;21192;40.182;44.516;2023-07-09T11:36:56;24.13;;;6.10;;
34988;SDS011;21192;40.182;44.516;2023-07-09T11:42:01;33.45;;;9.27;;
34988;SDS011;21192;40.182;44.516;2023-07-09T11:44:31;24.48;;;7.55;;
34988;SDS011;21192;40.182;44.516;2023-07-09T11:52:19;20.30;;;6.28;;
34988;SDS011;21192;40.182;44.516;2023-07-09T11:54:50;22.50;;;6.63;;
34988;SDS011;21192;40.182;44.516;2023-07-09T11:57:16;21.50;;;7.82;;
34988;SDS011;21192;40.182;44.516;2023-07-09T11:59:43;17.48;;;6.22;;
34988;SDS011;21192;40.182;44.516;2023-07-09T12:02:13;17.75;;;6.05;;
34988;SDS011;21192;40.182;44.516;2023-07-09T12:04:47;26.88;;;8.23;;
34988;SDS011;21192;40.182;44.516;2023-07-09T12:07:15;19.60;;;8.02;;
34988;SDS011;21192;40.182;44.516;2023-07-09T12:09:49;24.23;;;7.88;;
34988;SDS011;21192;40.182;44.516;2023-07-09T12:12:17;21.83;;;7.43;;
34988;SDS011;21192;40.182;44.516;2023-07-09T12:14:44;18.65;;;6.45;;
34988;SDS011;21192;40.182;44.516;2023-07-09T12:17:10;25.05;;;6.35;;
34988;SDS011;21192;40.182;44.516;2023-07-09T12:19:36;17.38;;;5.60;;
34988;SDS011;21192;40.182;44.516;2023-07-09T12:22:01;24.42;;;7.40;;
34988;SDS011;21192;40.182;44.516;2023-07-09T12:24:36;21.02;;;7.85;;
34988;SDS011;21192;40.182;44.516;2023-07-09T12:27:15;32.58;;;8.35;;
34988;SDS011;21192;40.182;44.516;2023-07-09T12:29:45;34.17;;;8.73;;
34988;SDS011;21192;40.182;44.516;2023-07-09T12:32:12;18.35;;;5.03;;
34988;SDS011;21192;40.182;44.516;2023-07-09T12:34:40;19.50;;;6.28;;
34988;SDS011;21192;40.182;44.516;2023-07-09T12:37:08;25.70;;;7.78;;
34988;SDS011;21192;40.182;44.516;2023-07-09T12:39:39;25.40;;;8.02;;
34988;SDS011;21192;40.182;44.516;2023-07-09T12:42:05;24.23;;;7.82;;
34988;SDS011;21192;40.182;44.516;2023-07-09T12:44:37;25.08;;;8.13;;
34988;SDS011;21192;40.182;44.516;2023-07-09T12:47:03;28.95;;;9.38;;
34988;SDS011;21192;40.182;44.516;2023-07-09T12:49:30;29.88;;;9.48;;
34988;SDS011;21192;40.182;44.516;2023-07-09T12:52:09;20.33;;;7.00;;
34988;SDS011;21192;40.182;44.516;2023-07-09T12:54:41;26.85;;;8.38;;
34988;SDS011;21192;40.182;44.516;2023-07-09T12:57:16;31.80;;;9.60;;
34988;SDS011;21192;40.182;44.516;2023-07-09T12:59:42;20.92;;;7.13;;
34988;SDS011;21192;40.182;44.516;2023-07-09T13:04:43;25.75;;;7.18;;
34988;SDS011;21192;40.182;44.516;2023-07-09T13:09:52;35.80;;;9.63;;
34988;SDS011;21192;40.182;44.516;2023-07-09T13:12:20;24.27;;;6.85;;
34988;SDS011;21192;40.182;44.516;2023-07-09T13:14:53;21.48;;;7.20;;
34988;SDS011;21192;40.182;44.516;2023-07-09T13:17:20;27.83;;;8.13;;
34988;SDS011;21192;40.182;44.516;2023-07-09T13:19:46;15.90;;;6.82;;
34988;SDS011;21192;40.182;44.516;2023-07-09T13:22:12;17.42;;;6.65;;
34988;SDS011;21192;40.182;44.516;2023-07-09T13:24:40;18.45;;;6.38;;
34988;SDS011;21192;40.182;44.516;2023-07-09T13:27:08;20.40;;;6.95;;
34988;SDS011;21192;40.182;44.516;2023-07-09T13:29:39;20.42;;;7.15;;
34988;SDS011;21192;40.182;44.516;2023-07-09T13:32:11;20.85;;;8.60;;
34988;SDS011;21192;40.182;44.516;2023-07-09T13:34:38;19.17;;;5.22;;
34988;SDS011;21192;40.182;44.516;2023-07-09T13:37:08;17.92;;;6.40;;
34988;SDS011;21192;40.182;44.516;2023-07-09T13:39:39;29.23;;;8.00;;
34988;SDS011;21192;40.182;44.516;2023-07-09T13:42:08;22.75;;;7.10;;
34988;SDS011;21192;40.182;44.516;2023-07-09T13:44:38;17.23;;;5.95;;
34988;SDS011;21192;40.182;44.516;2023-07-09T13:47:04;29.58;;;8.40;;
34988;SDS011;21192;40.182;44.516;2023-07-09T13:49:31;28.63;;;7.45;;
34988;SDS011;21192;40.182;44.516;2023-07-09T13:51:57;23.33;;;6.80;;
34988;SDS011;21192;40.182;44.516;2023-07-09T13:54:26;27.80;;;8.50;;
34988;SDS011;21192;40.182;44.516;2023-07-09T13:57:00;20.33;;;7.80;;
34988;SDS011;21192;40.182;44.516;2023-07-09T13:59:27;26.90;;;9.23;;
34988;SDS011;21192;40.182;44.516;2023-07-09T14:01:55;24.60;;;10.60;;
34988;SDS011;21192;40.182;44.516;2023-07-09T14:04:23;27.00;;;12.98;;
34988;SDS011;21192;40.182;44.516;2023-07-09T14:06:50;26.17;;;9.25;;
34988;SDS011;21192;40.182;44.516;2023-07-09T14:09:16;26.30;;;7.93;;
34988;SDS011;21192;40.182;44.516;2023-07-09T14:11:44;20.88;;;8.25;;
34988;SDS011;21192;40.182;44.516;2023-07-09T14:14:15;22.48;;;8.10;;
34988;SDS011;21192;40.182;44.516;2023-07-09T14:16:42;22.73;;;7.88;;
34988;SDS011;21192;40.182;44.516;2023-07-09T14:19:12;21.58;;;9.55;;
34988;SDS011;21192;40.182;44.516;2023-07-09T14:21:42;25.55;;;10.70;;
34988;SDS011;21192;40.182;44.516;2023-07-09T14:24:42;25.42;;;9.18;;
34988;SDS011;21192;40.182;44.516;2023-07-09T14:27:01;29.02;;;10.18;;
34988;SDS011;21192;40.182;44.516;2023-07-09T14:29:27;29.00;;;9.90;;
34988;SDS011;21192;40.182;44.516;2023-07-09T14:31:52;30.98;;;11.55;;
34988;SDS011;21192;40.182;44.516;2023-07-09T14:34:22;24.98;;;8.73;;
34988;SDS011;21192;40.182;44.516;2023-07-09T14:36:58;25.50;;;9.82;;
34988;SDS011;21192;40.182;44.516;2023-07-09T14:39:28;26.63;;;8.18;;
34988;SDS011;21192;40.182;44.516;2023-07-09T14:41:54;26.05;;;8.85;;
34988;SDS011;21192;40.182;44.516;2023-07-09T14:44:24;23.55;;;9.55;;
34988;SDS011;21192;40.182;44.516;2023-07-09T14:46:53;25.45;;;9.45;;
34988;SDS011;21192;40.182;44.516;2023-07-09T14:49:20;28.77;;;9.00;;
34988;SDS011;21192;40.182;44.516;2023-07-09T14:51:46;22.83;;;8.30;;
34988;SDS011;21192;40.182;44.516;2023-07-09T14:56:49;26.92;;;9.68;;
34988;SDS011;21192;40.182;44.516;2023-07-09T14:59:16;33.53;;;11.15;;
34988;SDS011;21192;40.182;44.516;2023-07-09T15:01:43;24.23;;;9.02;;
34988;SDS011;21192;40.182;44.516;2023-07-09T15:04:22;21.38;;;8.20;;
34988;SDS011;21192;40.182;44.516;2023-07-09T15:06:54;22.70;;;7.65;;
34988;SDS011;21192;40.182;44.516;2023-07-09T15:09:21;18.42;;;9.15;;
34988;SDS011;21192;40.182;44.516;2023-07-09T15:11:50;22.60;;;8.02;;
34988;SDS011;21192;40.182;44.516;2023-07-09T15:14:18;28.90;;;8.52;;
34988;SDS011;21192;40.182;44.516;2023-07-09T15:16:45;25.77;;;7.28;;
34988;SDS011;21192;40.182;44.516;2023-07-09T15:19:16;25.10;;;7.93;;